sensor_id;sensor_type;location;lat;lon;timestamp;P1;durP1;ratioP1;P2;durP2;ratioP2
12476;SDS011;6303;51.504;6.300;2022-12-17T00:02:24;5.97;;;5.38;;
12476;SDS011;6303;51.504;6.300;2022-12-17T00:05:10;7.03;;;5.57;;
12476;SDS011;6303;51.504;6.300;2022-12-17T00:07:55;6.45;;;5.75;;
12476;SDS011;6303;51.504;6.300;2022-12-17T00:10:40;5.97;;;5.38;;
12476;SDS011;6303;51.504;6.300;2022-12-17T00:13:24;7.70;;;5.15;;
12476;SDS011;6303;51.504;6.300;2022-12-17T00:16:08;5.82;;;5.03;;
12476;SDS011;6303;51.504;6.300;2022-12-17T00:18:52;6.88;;;5.82;;
12476;SDS011;6303;51.504;6.300;2022-12-17T00:21:38;6.05;;;5.22;;
12476;SDS011;6303;51.504;6.300;2022-12-17T00:24:23;6.03;;;5.43;;
12476;SDS011;6303;51.504;6.300;2022-12-17T00:27:07;6.13;;;5.20;;
12476;SDS011;6303;51.504;6.300;2022-12-17T00:29:52;5.90;;;5.30;;
12476;SDS011;6303;51.504;6.300;2022-12-17T00:32:37;6.22;;;4.97;;
12476;SDS011;6303;51.504;6.300;2022-12-17T00:35:21;6.55;;;5.47;;
12476;SDS011;6303;51.504;6.300;2022-12-17T00:38:12;5.85;;;5.22;;
12476;SDS011;6303;51.504;6.300;2022-12-17T00:40:58;6.00;;;5.40;;
12476;SDS011;6303;51.504;6.300;2022-12-17T00:43:43;8.15;;;6.00;;
12476;SDS011;6303;51.504;6.300;2022-12-17T00:46:24;5.82;;;5.20;;
12476;SDS011;6303;51.504;6.300;2022-12-17T00:49:09;6.32;;;5.30;;
12476;SDS011;6303;51.504;6.300;2022-12-17T00:51:53;6.65;;;5.30;;
12476;SDS011;6303;51.504;6.300;2022-12-17T00:54:39;6.22;;;5.32;;
12476;SDS011;6303;51.504;6.300;2022-12-17T00:57:23;6.20;;;5.40;;
12476;SDS011;6303;51.504;6.300;2022-12-17T01:00:09;7.28;;;5.20;;
12476;SDS011;6303;51.504;6.300;2022-12-17T01:03:02;5.25;;;4.75;;
12476;SDS011;6303;51.504;6.300;2022-12-17T01:05:47;5.97;;;5.00;;
12476;SDS011;6303;51.504;6.300;2022-12-17T01:08:31;6.78;;;5.50;;
12476;SDS011;6303;51.504;6.300;2022-12-17T01:11:17;5.65;;;4.97;;
12476;SDS011;6303;51.504;6.300;2022-12-17T01:14:02;8.82;;;5.03;;
12476;SDS011;6303;51.504;6.300;2022-12-17T01:16:46;7.80;;;5.68;;
12476;SDS011;6303;51.504;6.300;2022-12-17T01:19:31;16.30;;;5.57;;
12476;SDS011;6303;51.504;6.300;2022-12-17T01:22:14;7.15;;;4.88;;
12476;SDS011;6303;51.504;6.300;2022-12-17T01:24:59;5.20;;;4.70;;
12476;SDS011;6303;51.504;6.300;2022-12-17T01:27:48;5.80;;;5.00;;
12476;SDS011;6303;51.504;6.300;2022-12-17T01:30:34;5.80;;;5.10;;
12476;SDS011;6303;51.504;6.300;2022-12-17T01:33:19;6.57;;;5.32;;
12476;SDS011;6303;51.504;6.300;2022-12-17T01:36:03;6.80;;;5.78;;
12476;SDS011;6303;51.504;6.300;2022-12-17T01:38:48;6.55;;;5.28;;
12476;SDS011;6303;51.504;6.300;2022-12-17T01:41:32;6.32;;;5.68;;
12476;SDS011;6303;51.504;6.300;2022-12-17T01:44:42;6.18;;;5.00;;
12476;SDS011;6303;51.504;6.300;2022-12-17T01:47:31;5.68;;;5.07;;
12476;SDS011;6303;51.504;6.300;2022-12-17T01:50:19;6.57;;;5.68;;
12476;SDS011;6303;51.504;6.300;2022-12-17T01:53:05;5.93;;;5.28;;
12476;SDS011;6303;51.504;6.300;2022-12-17T01:55:51;11.07;;;5.50;;
12476;SDS011;6303;51.504;6.300;2022-12-17T01:58:37;7.10;;;5.55;;
12476;SDS011;6303;51.504;6.300;2022-12-17T02:01:24;7.18;;;5.63;;
12476;SDS011;6303;51.504;6.300;2022-12-17T02:04:09;8.63;;;6.20;;
12476;SDS011;6303;51.504;6.300;2022-12-17T02:06:57;8.07;;;5.45;;
12476;SDS011;6303;51.504;6.300;2022-12-17T02:09:58;5.97;;;5.38;;
12476;SDS011;6303;51.504;6.300;2022-12-17T02:12:50;6.00;;;5.40;;
12476;SDS011;6303;51.504;6.300;2022-12-17T02:15:39;5.70;;;5.00;;
12476;SDS011;6303;51.504;6.300;2022-12-17T02:18:33;5.93;;;5.15;;
12476;SDS011;6303;51.504;6.300;2022-12-17T02:21:22;5.53;;;4.93;;
12476;SDS011;6303;51.504;6.300;2022-12-17T02:24:11;5.65;;;5.13;;
12476;SDS011;6303;51.504;6.300;2022-12-17T02:27:03;6.20;;;5.60;;
12476;SDS011;6303;51.504;6.300;2022-12-17T02:29:52;6.00;;;5.40;;
12476;SDS011;6303;51.504;6.300;2022-12-17T02:32:39;6.30;;;5.47;;
12476;SDS011;6303;51.504;6.300;2022-12-17T02:35:28;6.35;;;5.75;;
12476;SDS011;6303;51.504;6.300;2022-12-17T02:38:16;7.60;;;5.45;;
12476;SDS011;6303;51.504;6.300;2022-12-17T02:41:05;6.35;;;5.13;;
12476;SDS011;6303;51.504;6.300;2022-12-17T02:43:55;5.88;;;5.22;;
12476;SDS011;6303;51.504;6.300;2022-12-17T02:46:40;7.90;;;5.20;;
12476;SDS011;6303;51.504;6.300;2022-12-17T02:49:25;5.35;;;4.85;;
12476;SDS011;6303;51.504;6.300;2022-12-17T02:52:10;5.75;;;4.97;;
12476;SDS011;6303;51.504;6.300;2022-12-17T02:55:04;8.20;;;4.88;;
12476;SDS011;6303;51.504;6.300;2022-12-17T02:57:50;6.63;;;4.22;;
12476;SDS011;6303;51.504;6.300;2022-12-17T03:00:36;5.00;;;4.50;;
12476;SDS011;6303;51.504;6.300;2022-12-17T03:03:22;5.32;;;4.82;;
12476;SDS011;6303;51.504;6.300;2022-12-17T03:06:07;5.25;;;4.45;;
12476;SDS011;6303;51.504;6.300;2022-12-17T03:08:52;5.28;;;4.75;;
12476;SDS011;6303;51.504;6.300;2022-12-17T03:11:36;5.70;;;4.68;;
12476;SDS011;6303;51.504;6.300;2022-12-17T03:14:21;5.80;;;4.63;;
12476;SDS011;6303;51.504;6.300;2022-12-17T03:17:07;4.90;;;4.40;;
12476;SDS011;6303;51.504;6.300;2022-12-17T03:19:51;5.20;;;4.70;;
12476;SDS011;6303;51.504;6.300;2022-12-17T03:22:35;5.65;;;5.05;;
12476;SDS011;6303;51.504;6.300;2022-12-17T03:25:20;5.38;;;4.88;;
12476;SDS011;6303;51.504;6.300;2022-12-17T03:28:05;5.57;;;4.60;;
12476;SDS011;6303;51.504;6.300;2022-12-17T03:30:51;5.32;;;4.50;;
12476;SDS011;6303;51.504;6.300;2022-12-17T03:33:37;4.68;;;4.25;;
12476;SDS011;6303;51.504;6.300;2022-12-17T03:36:21;5.40;;;4.80;;
12476;SDS011;6303;51.504;6.300;2022-12-17T03:39:06;5.68;;;4.55;;
12476;SDS011;6303;51.504;6.300;2022-12-17T03:41:50;5.32;;;4.50;;
12476;SDS011;6303;51.504;6.300;2022-12-17T03:44:35;5.20;;;4.70;;
12476;SDS011;6303;51.504;6.300;2022-12-17T03:47:19;5.15;;;4.65;;
12476;SDS011;6303;51.504;6.300;2022-12-17T03:50:06;5.57;;;5.03;;
12476;SDS011;6303;51.504;6.300;2022-12-17T03:52:51;7.65;;;4.93;;
12476;SDS011;6303;51.504;6.300;2022-12-17T03:55:36;5.47;;;4.95;;
12476;SDS011;6303;51.504;6.300;2022-12-17T03:58:20;6.70;;;5.13;;
12476;SDS011;6303;51.504;6.300;2022-12-17T04:01:05;6.05;;;5.45;;
12476;SDS011;6303;51.504;6.300;2022-12-17T04:03:49;7.25;;;5.65;;
12476;SDS011;6303;51.504;6.300;2022-12-17T04:06:35;12.32;;;5.82;;
12476;SDS011;6303;51.504;6.300;2022-12-17T04:09:20;6.68;;;5.78;;
12476;SDS011;6303;51.504;6.300;2022-12-17T04:12:04;7.03;;;5.53;;
12476;SDS011;6303;51.504;6.300;2022-12-17T04:14:49;6.28;;;5.28;;
12476;SDS011;6303;51.504;6.300;2022-12-17T04:17:33;6.28;;;5.28;;
12476;SDS011;6303;51.504;6.300;2022-12-17T04:20:18;6.18;;;5.40;;
12476;SDS011;6303;51.504;6.300;2022-12-17T04:23:09;6.05;;;5.45;;
12476;SDS011;6303;51.504;6.300;2022-12-17T04:25:53;5.28;;;4.68;;
12476;SDS011;6303;51.504;6.300;2022-12-17T04:28:38;5.78;;;5.15;;
12476;SDS011;6303;51.504;6.300;2022-12-17T04:31:23;5.88;;;5.13;;
12476;SDS011;6303;51.504;6.300;2022-12-17T04:34:07;6.32;;;5.28;;
12476;SDS011;6303;51.504;6.300;2022-12-17T04:36:51;5.50;;;5.00;;
12476;SDS011;6303;51.504;6.300;2022-12-17T04:39:37;6.40;;;5.38;;
12476;SDS011;6303;51.504;6.300;2022-12-17T04:42:22;5.72;;;5.10;;
12476;SDS011;6303;51.504;6.300;2022-12-17T04:45:07;6.05;;;5.00;;
12476;SDS011;6303;51.504;6.300;2022-12-17T04:47:58;6.30;;;5.40;;
12476;SDS011;6303;51.504;6.300;2022-12-17T04:50:44;7.95;;;5.10;;
12476;SDS011;6303;51.504;6.300;2022-12-17T04:53:28;5.35;;;4.85;;
12476;SDS011;6303;51.504;6.300;2022-12-17T04:56:14;5.05;;;4.55;;
12476;SDS011;6303;51.504;6.300;2022-12-17T04:58:59;5.28;;;4.78;;
12476;SDS011;6303;51.504;6.300;2022-12-17T05:01:43;6.13;;;5.32;;
12476;SDS011;6303;51.504;6.300;2022-12-17T05:04:28;7.18;;;5.28;;
12476;SDS011;6303;51.504;6.300;2022-12-17T05:07:12;7.65;;;5.45;;
12476;SDS011;6303;51.504;6.300;2022-12-17T05:09:57;6.10;;;5.32;;
12476;SDS011;6303;51.504;6.300;2022-12-17T05:12:43;8.35;;;6.22;;
12476;SDS011;6303;51.504;6.300;2022-12-17T05:15:27;7.05;;;5.47;;
12476;SDS011;6303;51.504;6.300;2022-12-17T05:18:11;6.60;;;5.57;;
12476;SDS011;6303;51.504;6.300;2022-12-17T05:20:56;6.78;;;6.05;;
12476;SDS011;6303;51.504;6.300;2022-12-17T05:23:41;7.03;;;6.00;;
12476;SDS011;6303;51.504;6.300;2022-12-17T05:26:26;7.43;;;6.05;;
12476;SDS011;6303;51.504;6.300;2022-12-17T05:29:12;7.07;;;6.38;;
12476;SDS011;6303;51.504;6.300;2022-12-17T05:31:56;8.25;;;6.38;;
12476;SDS011;6303;51.504;6.300;2022-12-17T05:34:41;7.97;;;6.05;;
12476;SDS011;6303;51.504;6.300;2022-12-17T05:37:25;8.25;;;6.78;;
12476;SDS011;6303;51.504;6.300;2022-12-17T05:40:10;7.30;;;6.00;;
12476;SDS011;6303;51.504;6.300;2022-12-17T05:42:54;7.40;;;6.20;;
12476;SDS011;6303;51.504;6.300;2022-12-17T05:45:41;7.55;;;5.82;;
12476;SDS011;6303;51.504;6.300;2022-12-17T05:48:26;7.50;;;6.10;;
12476;SDS011;6303;51.504;6.300;2022-12-17T05:51:11;7.05;;;5.95;;
12476;SDS011;6303;51.504;6.300;2022-12-17T05:53:56;7.80;;;5.95;;
12476;SDS011;6303;51.504;6.300;2022-12-17T05:56:40;7.32;;;6.30;;
12476;SDS011;6303;51.504;6.300;2022-12-17T05:59:25;9.65;;;6.60;;
12476;SDS011;6303;51.504;6.300;2022-12-17T06:02:10;8.30;;;6.10;;
12476;SDS011;6303;51.504;6.300;2022-12-17T06:04:54;8.00;;;6.43;;
12476;SDS011;6303;51.504;6.300;2022-12-17T06:07:38;8.25;;;5.88;;
12476;SDS011;6303;51.504;6.300;2022-12-17T06:10:22;7.68;;;5.95;;
12476;SDS011;6303;51.504;6.300;2022-12-17T06:13:07;8.18;;;6.05;;
12476;SDS011;6303;51.504;6.300;2022-12-17T06:15:51;8.45;;;6.38;;
12476;SDS011;6303;51.504;6.300;2022-12-17T06:18:37;7.00;;;5.82;;
12476;SDS011;6303;51.504;6.300;2022-12-17T06:21:22;8.02;;;6.25;;
12476;SDS011;6303;51.504;6.300;2022-12-17T06:24:06;9.77;;;6.70;;
12476;SDS011;6303;51.504;6.300;2022-12-17T06:26:51;8.52;;;6.10;;
12476;SDS011;6303;51.504;6.300;2022-12-17T06:29:36;10.65;;;6.97;;
12476;SDS011;6303;51.504;6.300;2022-12-17T06:32:20;7.93;;;6.35;;
12476;SDS011;6303;51.504;6.300;2022-12-17T06:35:07;8.20;;;6.30;;
12476;SDS011;6303;51.504;6.300;2022-12-17T06:37:56;8.82;;;6.75;;
12476;SDS011;6303;51.504;6.300;2022-12-17T06:40:41;10.15;;;6.78;;
12476;SDS011;6303;51.504;6.300;2022-12-17T06:43:26;7.80;;;6.53;;
12476;SDS011;6303;51.504;6.300;2022-12-17T06:46:10;6.63;;;5.78;;
12476;SDS011;6303;51.504;6.300;2022-12-17T06:48:55;9.40;;;6.40;;
12476;SDS011;6303;51.504;6.300;2022-12-17T06:51:40;7.68;;;6.25;;
12476;SDS011;6303;51.504;6.300;2022-12-17T06:54:24;7.32;;;6.07;;
12476;SDS011;6303;51.504;6.300;2022-12-17T06:57:09;6.90;;;5.75;;
12476;SDS011;6303;51.504;6.300;2022-12-17T06:59:54;7.13;;;5.63;;
12476;SDS011;6303;51.504;6.300;2022-12-17T07:02:38;7.47;;;6.07;;
12476;SDS011;6303;51.504;6.300;2022-12-17T07:05:23;7.75;;;5.85;;
12476;SDS011;6303;51.504;6.300;2022-12-17T07:08:08;7.82;;;6.28;;
12476;SDS011;6303;51.504;6.300;2022-12-17T07:10:53;7.57;;;6.43;;
12476;SDS011;6303;51.504;6.300;2022-12-17T07:13:37;8.07;;;6.40;;
12476;SDS011;6303;51.504;6.300;2022-12-17T07:16:18;10.02;;;5.95;;
12476;SDS011;6303;51.504;6.300;2022-12-17T07:19:03;8.77;;;6.50;;
12476;SDS011;6303;51.504;6.300;2022-12-17T07:21:48;7.50;;;5.95;;
12476;SDS011;6303;51.504;6.300;2022-12-17T07:24:33;7.57;;;6.07;;
12476;SDS011;6303;51.504;6.300;2022-12-17T07:27:17;6.93;;;5.45;;
12476;SDS011;6303;51.504;6.300;2022-12-17T07:30:02;7.75;;;6.05;;
12476;SDS011;6303;51.504;6.300;2022-12-17T07:32:47;6.63;;;5.53;;
12476;SDS011;6303;51.504;6.300;2022-12-17T07:35:40;7.80;;;5.88;;
12476;SDS011;6303;51.504;6.300;2022-12-17T07:38:25;6.88;;;6.18;;
12476;SDS011;6303;51.504;6.300;2022-12-17T07:41:11;7.15;;;5.55;;
12476;SDS011;6303;51.504;6.300;2022-12-17T07:43:57;8.23;;;5.57;;
12476;SDS011;6303;51.504;6.300;2022-12-17T07:46:41;7.22;;;5.63;;
12476;SDS011;6303;51.504;6.300;2022-12-17T07:49:26;6.78;;;5.30;;
12476;SDS011;6303;51.504;6.300;2022-12-17T07:52:11;6.63;;;5.55;;
12476;SDS011;6303;51.504;6.300;2022-12-17T07:54:55;6.82;;;5.53;;
12476;SDS011;6303;51.504;6.300;2022-12-17T07:57:41;6.53;;;5.55;;
12476;SDS011;6303;51.504;6.300;2022-12-17T08:00:25;8.95;;;6.75;;
12476;SDS011;6303;51.504;6.300;2022-12-17T08:03:09;7.82;;;5.68;;
12476;SDS011;6303;51.504;6.300;2022-12-17T08:05:55;7.05;;;6.10;;
12476;SDS011;6303;51.504;6.300;2022-12-17T08:08:40;9.18;;;5.53;;
12476;SDS011;6303;51.504;6.300;2022-12-17T08:11:24;7.07;;;5.90;;
12476;SDS011;6303;51.504;6.300;2022-12-17T08:14:11;8.25;;;6.50;;
12476;SDS011;6303;51.504;6.300;2022-12-17T08:16:57;8.43;;;6.18;;
12476;SDS011;6303;51.504;6.300;2022-12-17T08:19:41;6.57;;;5.40;;
12476;SDS011;6303;51.504;6.300;2022-12-17T08:22:22;7.88;;;5.95;;
12476;SDS011;6303;51.504;6.300;2022-12-17T08:25:07;9.85;;;6.00;;
12476;SDS011;6303;51.504;6.300;2022-12-17T08:27:54;8.75;;;6.18;;
12476;SDS011;6303;51.504;6.300;2022-12-17T08:30:40;9.05;;;6.68;;
12476;SDS011;6303;51.504;6.300;2022-12-17T08:33:25;9.45;;;6.97;;
12476;SDS011;6303;51.504;6.300;2022-12-17T08:36:10;9.00;;;6.68;;
12476;SDS011;6303;51.504;6.300;2022-12-17T08:38:54;8.25;;;6.82;;
12476;SDS011;6303;51.504;6.300;2022-12-17T08:41:38;9.80;;;7.07;;
12476;SDS011;6303;51.504;6.300;2022-12-17T08:44:23;12.55;;;6.57;;
12476;SDS011;6303;51.504;6.300;2022-12-17T08:47:09;9.50;;;6.85;;
12476;SDS011;6303;51.504;6.300;2022-12-17T08:49:53;8.20;;;6.50;;
12476;SDS011;6303;51.504;6.300;2022-12-17T08:52:38;8.18;;;6.22;;
12476;SDS011;6303;51.504;6.300;2022-12-17T08:55:22;7.85;;;5.95;;
12476;SDS011;6303;51.504;6.300;2022-12-17T08:58:09;9.25;;;6.45;;
12476;SDS011;6303;51.504;6.300;2022-12-17T09:00:56;8.10;;;5.78;;
12476;SDS011;6303;51.504;6.300;2022-12-17T09:03:42;8.48;;;5.68;;
12476;SDS011;6303;51.504;6.300;2022-12-17T09:06:28;6.40;;;5.50;;
12476;SDS011;6303;51.504;6.300;2022-12-17T09:09:12;8.48;;;5.72;;
12476;SDS011;6303;51.504;6.300;2022-12-17T09:11:57;6.60;;;5.63;;
12476;SDS011;6303;51.504;6.300;2022-12-17T09:14:41;6.30;;;5.68;;
12476;SDS011;6303;51.504;6.300;2022-12-17T09:17:26;6.03;;;5.38;;
12476;SDS011;6303;51.504;6.300;2022-12-17T09:20:14;6.43;;;5.00;;
12476;SDS011;6303;51.504;6.300;2022-12-17T09:22:59;6.53;;;5.50;;
12476;SDS011;6303;51.504;6.300;2022-12-17T09:25:50;7.15;;;5.75;;
12476;SDS011;6303;51.504;6.300;2022-12-17T09:28:44;7.18;;;5.70;;
12476;SDS011;6303;51.504;6.300;2022-12-17T09:31:29;8.52;;;5.60;;
12476;SDS011;6303;51.504;6.300;2022-12-17T09:34:13;6.03;;;5.43;;
12476;SDS011;6303;51.504;6.300;2022-12-17T09:36:59;7.38;;;5.72;;
12476;SDS011;6303;51.504;6.300;2022-12-17T09:39:43;6.10;;;5.45;;
12476;SDS011;6303;51.504;6.300;2022-12-17T09:42:28;6.35;;;5.22;;
12476;SDS011;6303;51.504;6.300;2022-12-17T09:45:19;6.80;;;5.28;;
12476;SDS011;6303;51.504;6.300;2022-12-17T09:48:06;5.47;;;4.93;;
12476;SDS011;6303;51.504;6.300;2022-12-17T09:50:59;8.02;;;5.88;;
12476;SDS011;6303;51.504;6.300;2022-12-17T09:53:46;7.40;;;5.78;;
12476;SDS011;6303;51.504;6.300;2022-12-17T09:56:33;6.45;;;5.15;;
12476;SDS011;6303;51.504;6.300;2022-12-17T09:59:20;6.45;;;5.45;;
12476;SDS011;6303;51.504;6.300;2022-12-17T10:02:11;6.18;;;5.30;;
12476;SDS011;6303;51.504;6.300;2022-12-17T10:04:57;5.65;;;4.85;;
12476;SDS011;6303;51.504;6.300;2022-12-17T10:07:44;5.30;;;4.50;;
12476;SDS011;6303;51.504;6.300;2022-12-17T10:10:31;6.00;;;5.00;;
12476;SDS011;6303;51.504;6.300;2022-12-17T10:13:17;5.85;;;4.63;;
12476;SDS011;6303;51.504;6.300;2022-12-17T10:16:11;5.80;;;5.03;;
12476;SDS011;6303;51.504;6.300;2022-12-17T10:19:02;5.93;;;4.80;;
12476;SDS011;6303;51.504;6.300;2022-12-17T10:21:48;6.78;;;5.38;;
12476;SDS011;6303;51.504;6.300;2022-12-17T10:24:42;6.35;;;4.68;;
12476;SDS011;6303;51.504;6.300;2022-12-17T10:27:28;6.43;;;5.20;;
12476;SDS011;6303;51.504;6.300;2022-12-17T10:30:14;6.55;;;4.80;;
12476;SDS011;6303;51.504;6.300;2022-12-17T10:32:55;6.57;;;4.72;;
12476;SDS011;6303;51.504;6.300;2022-12-17T10:35:40;5.38;;;4.53;;
12476;SDS011;6303;51.504;6.300;2022-12-17T10:38:25;4.88;;;4.28;;
12476;SDS011;6303;51.504;6.300;2022-12-17T10:41:19;5.40;;;4.30;;
12476;SDS011;6303;51.504;6.300;2022-12-17T10:44:20;4.80;;;4.30;;
12476;SDS011;6303;51.504;6.300;2022-12-17T10:47:12;5.97;;;4.10;;
12476;SDS011;6303;51.504;6.300;2022-12-17T10:49:58;4.68;;;4.18;;
12476;SDS011;6303;51.504;6.300;2022-12-17T10:52:44;5.25;;;4.30;;
12476;SDS011;6303;51.504;6.300;2022-12-17T10:55:30;5.13;;;4.28;;
12476;SDS011;6303;51.504;6.300;2022-12-17T10:58:18;6.07;;;4.68;;
12476;SDS011;6303;51.504;6.300;2022-12-17T11:01:04;5.85;;;4.63;;
12476;SDS011;6303;51.504;6.300;2022-12-17T11:03:52;5.40;;;4.72;;
12476;SDS011;6303;51.504;6.300;2022-12-17T11:06:39;4.90;;;4.25;;
12476;SDS011;6303;51.504;6.300;2022-12-17T11:09:30;6.82;;;5.40;;
12476;SDS011;6303;51.504;6.300;2022-12-17T11:12:31;5.47;;;4.63;;
12476;SDS011;6303;51.504;6.300;2022-12-17T11:15:21;6.03;;;4.90;;
12476;SDS011;6303;51.504;6.300;2022-12-17T11:18:11;5.20;;;4.60;;
12476;SDS011;6303;51.504;6.300;2022-12-17T11:21:03;5.32;;;4.78;;
12476;SDS011;6303;51.504;6.300;2022-12-17T11:24:07;5.60;;;4.95;;
12476;SDS011;6303;51.504;6.300;2022-12-17T11:26:56;5.63;;;4.88;;
12476;SDS011;6303;51.504;6.300;2022-12-17T11:29:45;5.90;;;4.60;;
12476;SDS011;6303;51.504;6.300;2022-12-17T11:32:44;5.25;;;4.38;;
12476;SDS011;6303;51.504;6.300;2022-12-17T11:35:47;5.50;;;4.22;;
12476;SDS011;6303;51.504;6.300;2022-12-17T11:38:37;6.18;;;4.32;;
12476;SDS011;6303;51.504;6.300;2022-12-17T11:41:28;5.97;;;4.50;;
12476;SDS011;6303;51.504;6.300;2022-12-17T11:44:35;5.97;;;4.35;;
12476;SDS011;6303;51.504;6.300;2022-12-17T11:47:32;5.32;;;4.40;;
12476;SDS011;6303;51.504;6.300;2022-12-17T11:50:25;5.40;;;4.45;;
12476;SDS011;6303;51.504;6.300;2022-12-17T11:53:35;4.97;;;4.05;;
12476;SDS011;6303;51.504;6.300;2022-12-17T11:56:26;4.40;;;3.72;;
12476;SDS011;6303;51.504;6.300;2022-12-17T11:59:19;5.43;;;4.60;;
12476;SDS011;6303;51.504;6.300;2022-12-17T12:02:13;4.93;;;4.25;;
12476;SDS011;6303;51.504;6.300;2022-12-17T12:05:13;6.57;;;4.57;;
12476;SDS011;6303;51.504;6.300;2022-12-17T12:08:09;5.55;;;4.50;;
12476;SDS011;6303;51.504;6.300;2022-12-17T12:11:02;6.10;;;4.97;;
12476;SDS011;6303;51.504;6.300;2022-12-17T12:13:55;5.55;;;4.35;;
12476;SDS011;6303;51.504;6.300;2022-12-17T12:16:48;5.15;;;4.47;;
12476;SDS011;6303;51.504;6.300;2022-12-17T12:19:40;6.07;;;5.20;;
12476;SDS011;6303;51.504;6.300;2022-12-17T12:22:35;6.97;;;4.82;;
12476;SDS011;6303;51.504;6.300;2022-12-17T12:25:28;5.57;;;5.00;;
12476;SDS011;6303;51.504;6.300;2022-12-17T12:28:22;6.90;;;4.78;;
12476;SDS011;6303;51.504;6.300;2022-12-17T12:31:20;4.85;;;4.32;;
12476;SDS011;6303;51.504;6.300;2022-12-17T12:34:11;5.70;;;4.63;;
12476;SDS011;6303;51.504;6.300;2022-12-17T12:37:01;7.35;;;5.10;;
12476;SDS011;6303;51.504;6.300;2022-12-17T12:39:48;5.80;;;4.60;;
12476;SDS011;6303;51.504;6.300;2022-12-17T12:42:38;5.68;;;4.68;;
12476;SDS011;6303;51.504;6.300;2022-12-17T12:45:32;6.28;;;4.38;;
12476;SDS011;6303;51.504;6.300;2022-12-17T12:48:26;4.75;;;4.22;;
12476;SDS011;6303;51.504;6.300;2022-12-17T12:51:18;5.60;;;4.60;;
12476;SDS011;6303;51.504;6.300;2022-12-17T12:54:23;4.97;;;4.22;;
12476;SDS011;6303;51.504;6.300;2022-12-17T12:57:28;5.05;;;4.38;;
12476;SDS011;6303;51.504;6.300;2022-12-17T13:00:33;5.20;;;4.70;;
12476;SDS011;6303;51.504;6.300;2022-12-17T13:03:24;6.05;;;5.00;;
12476;SDS011;6303;51.504;6.300;2022-12-17T13:06:11;6.18;;;4.53;;
12476;SDS011;6303;51.504;6.300;2022-12-17T13:08:40;5.40;;;4.60;;
12476;SDS011;6303;51.504;6.300;2022-12-17T13:11:08;5.95;;;4.47;;
12476;SDS011;6303;51.504;6.300;2022-12-17T13:13:52;6.00;;;4.70;;
12476;SDS011;6303;51.504;6.300;2022-12-17T13:16:31;5.93;;;5.10;;
12476;SDS011;6303;51.504;6.300;2022-12-17T13:19:16;6.50;;;5.15;;
12476;SDS011;6303;51.504;6.300;2022-12-17T13:21:45;5.70;;;4.72;;
12476;SDS011;6303;51.504;6.300;2022-12-17T13:24:21;5.78;;;4.90;;
12476;SDS011;6303;51.504;6.300;2022-12-17T13:26:50;7.32;;;5.03;;
12476;SDS011;6303;51.504;6.300;2022-12-17T13:29:21;6.80;;;5.20;;
12476;SDS011;6303;51.504;6.300;2022-12-17T13:31:57;6.65;;;4.80;;
12476;SDS011;6303;51.504;6.300;2022-12-17T13:34:35;7.63;;;5.32;;
12476;SDS011;6303;51.504;6.300;2022-12-17T13:37:14;7.13;;;5.55;;
12476;SDS011;6303;51.504;6.300;2022-12-17T13:39:53;8.98;;;5.65;;
12476;SDS011;6303;51.504;6.300;2022-12-17T13:42:29;6.45;;;5.43;;
12476;SDS011;6303;51.504;6.300;2022-12-17T13:44:58;6.50;;;5.18;;
12476;SDS011;6303;51.504;6.300;2022-12-17T13:47:28;6.30;;;5.40;;
12476;SDS011;6303;51.504;6.300;2022-12-17T13:49:59;6.90;;;5.85;;
12476;SDS011;6303;51.504;6.300;2022-12-17T13:52:28;7.50;;;5.35;;
12476;SDS011;6303;51.504;6.300;2022-12-17T13:55:05;6.88;;;5.43;;
12476;SDS011;6303;51.504;6.300;2022-12-17T13:57:34;6.75;;;5.93;;
12476;SDS011;6303;51.504;6.300;2022-12-17T14:00:03;7.20;;;6.25;;
12476;SDS011;6303;51.504;6.300;2022-12-17T14:02:39;7.38;;;6.03;;
12476;SDS011;6303;51.504;6.300;2022-12-17T14:05:17;7.00;;;5.53;;
12476;SDS011;6303;51.504;6.300;2022-12-17T14:07:49;6.43;;;5.63;;
12476;SDS011;6303;51.504;6.300;2022-12-17T14:10:16;7.13;;;5.90;;
12476;SDS011;6303;51.504;6.300;2022-12-17T14:12:44;8.93;;;5.95;;
12476;SDS011;6303;51.504;6.300;2022-12-17T14:15:16;7.35;;;6.05;;
12476;SDS011;6303;51.504;6.300;2022-12-17T14:17:49;7.70;;;6.20;;
12476;SDS011;6303;51.504;6.300;2022-12-17T14:20:18;8.70;;;6.00;;
12476;SDS011;6303;51.504;6.300;2022-12-17T14:22:48;7.78;;;6.05;;
12476;SDS011;6303;51.504;6.300;2022-12-17T14:25:17;7.45;;;6.10;;
12476;SDS011;6303;51.504;6.300;2022-12-17T14:27:48;8.05;;;6.70;;
12476;SDS011;6303;51.504;6.300;2022-12-17T14:30:22;10.65;;;7.03;;
12476;SDS011;6303;51.504;6.300;2022-12-17T14:33:02;7.45;;;6.25;;
12476;SDS011;6303;51.504;6.300;2022-12-17T14:35:30;8.82;;;6.90;;
12476;SDS011;6303;51.504;6.300;2022-12-17T14:38:00;8.93;;;6.45;;
12476;SDS011;6303;51.504;6.300;2022-12-17T14:40:28;10.38;;;6.75;;
12476;SDS011;6303;51.504;6.300;2022-12-17T14:42:56;7.55;;;6.13;;
12476;SDS011;6303;51.504;6.300;2022-12-17T14:45:26;9.23;;;6.40;;
12476;SDS011;6303;51.504;6.300;2022-12-17T14:47:54;7.97;;;6.13;;
12476;SDS011;6303;51.504;6.300;2022-12-17T14:50:25;6.13;;;5.50;;
12476;SDS011;6303;51.504;6.300;2022-12-17T14:52:55;8.13;;;6.20;;
12476;SDS011;6303;51.504;6.300;2022-12-17T14:55:28;8.88;;;6.78;;
12476;SDS011;6303;51.504;6.300;2022-12-17T14:58:07;8.43;;;6.85;;
12476;SDS011;6303;51.504;6.300;2022-12-17T15:00:44;7.20;;;5.93;;
12476;SDS011;6303;51.504;6.300;2022-12-17T15:03:16;8.27;;;6.75;;
12476;SDS011;6303;51.504;6.300;2022-12-17T15:05:47;9.00;;;6.60;;
12476;SDS011;6303;51.504;6.300;2022-12-17T15:08:18;10.43;;;6.72;;
12476;SDS011;6303;51.504;6.300;2022-12-17T15:10:46;7.65;;;6.40;;
12476;SDS011;6303;51.504;6.300;2022-12-17T15:13:13;8.48;;;6.47;;
12476;SDS011;6303;51.504;6.300;2022-12-17T15:15:40;8.10;;;6.18;;
12476;SDS011;6303;51.504;6.300;2022-12-17T15:18:07;7.80;;;6.72;;
12476;SDS011;6303;51.504;6.300;2022-12-17T15:20:37;8.00;;;6.35;;
12476;SDS011;6303;51.504;6.300;2022-12-17T15:23:07;9.23;;;6.63;;
12476;SDS011;6303;51.504;6.300;2022-12-17T15:25:39;8.32;;;6.75;;
12476;SDS011;6303;51.504;6.300;2022-12-17T15:28:06;9.63;;;6.82;;
12476;SDS011;6303;51.504;6.300;2022-12-17T15:30:34;9.07;;;6.90;;
12476;SDS011;6303;51.504;6.300;2022-12-17T15:33:01;9.73;;;6.63;;
12476;SDS011;6303;51.504;6.300;2022-12-17T15:35:29;9.35;;;6.97;;
12476;SDS011;6303;51.504;6.300;2022-12-17T15:37:56;9.45;;;7.00;;
12476;SDS011;6303;51.504;6.300;2022-12-17T15:40:24;14.48;;;6.57;;
12476;SDS011;6303;51.504;6.300;2022-12-17T15:42:51;9.30;;;7.00;;
12476;SDS011;6303;51.504;6.300;2022-12-17T15:45:36;9.32;;;6.90;;
12476;SDS011;6303;51.504;6.300;2022-12-17T15:48:04;7.85;;;6.20;;
12476;SDS011;6303;51.504;6.300;2022-12-17T15:50:31;7.93;;;6.32;;
12476;SDS011;6303;51.504;6.300;2022-12-17T15:52:58;9.85;;;6.88;;
12476;SDS011;6303;51.504;6.300;2022-12-17T15:55:27;7.90;;;6.50;;
12476;SDS011;6303;51.504;6.300;2022-12-17T15:57:54;8.20;;;6.22;;
12476;SDS011;6303;51.504;6.300;2022-12-17T16:00:22;10.35;;;6.68;;
12476;SDS011;6303;51.504;6.300;2022-12-17T16:02:49;7.85;;;6.78;;
12476;SDS011;6303;51.504;6.300;2022-12-17T16:05:17;9.27;;;6.65;;
12476;SDS011;6303;51.504;6.300;2022-12-17T16:07:46;9.60;;;7.15;;
12476;SDS011;6303;51.504;6.300;2022-12-17T16:10:13;11.80;;;6.97;;
12476;SDS011;6303;51.504;6.300;2022-12-17T16:12:42;8.35;;;7.05;;
12476;SDS011;6303;51.504;6.300;2022-12-17T16:15:09;8.52;;;6.80;;
12476;SDS011;6303;51.504;6.300;2022-12-17T16:17:37;9.02;;;6.82;;
12476;SDS011;6303;51.504;6.300;2022-12-17T16:20:05;8.38;;;6.72;;
12476;SDS011;6303;51.504;6.300;2022-12-17T16:22:32;9.85;;;7.13;;
12476;SDS011;6303;51.504;6.300;2022-12-17T16:24:59;9.52;;;6.78;;
12476;SDS011;6303;51.504;6.300;2022-12-17T16:27:26;7.78;;;6.65;;
12476;SDS011;6303;51.504;6.300;2022-12-17T16:29:55;8.18;;;6.50;;
12476;SDS011;6303;51.504;6.300;2022-12-17T16:32:22;8.23;;;6.35;;
12476;SDS011;6303;51.504;6.300;2022-12-17T16:34:49;7.72;;;6.25;;
12476;SDS011;6303;51.504;6.300;2022-12-17T16:37:16;8.80;;;6.88;;
12476;SDS011;6303;51.504;6.300;2022-12-17T16:39:43;9.48;;;6.35;;